createdAt,value
2023-02-17T00:00:58.917Z,84.87
2023-02-17T00:01:59.959Z,84.73
2023-02-17T00:02:58.871Z,84.85
2023-02-17T00:03:59.080Z,84.97
2023-02-17T00:04:58.858Z,84.92
2023-02-17T00:05:59.108Z,85.06
2023-02-17T00:06:58.818Z,85.21
2023-02-17T00:07:58.955Z,85.36
2023-02-17T00:08:58.797Z,85.22
2023-02-17T00:09:58.878Z,85.15
2023-02-17T00:10:58.794Z,85.16
2023-02-17T00:12:19.788Z,85.22
2023-02-17T00:12:58.746Z,85.45
2023-02-17T00:13:58.848Z,85.45
2023-02-17T00:14:58.793Z,85.48
2023-02-17T00:15:58.877Z,85.25
2023-02-17T00:16:58.686Z,85.07
2023-02-17T00:17:59.837Z,85.06
2023-02-17T00:18:58.687Z,84.93
2023-02-17T00:19:58.750Z,84.95
2023-02-17T00:20:58.649Z,85.22
2023-02-17T00:21:58.734Z,85.37
2023-02-17T00:22:58.633Z,85.31
2023-02-17T00:23:59.755Z,85.33
2023-02-17T00:24:58.593Z,85.25
2023-02-17T00:25:58.755Z,85.28
2023-02-17T00:26:58.563Z,85.42
2023-02-17T00:27:58.744Z,85.41
2023-02-17T00:28:58.617Z,85.51
2023-02-17T00:30:20.857Z,85.39
2023-02-17T00:30:58.617Z,85.19
2023-02-17T00:31:58.713Z,85.26
2023-02-17T00:32:58.493Z,85.27
2023-02-17T00:33:58.662Z,85.24
2023-02-17T00:34:58.458Z,85.04
2023-02-17T00:35:58.667Z,84.75
2023-02-17T00:36:58.440Z,84.74
2023-02-17T00:37:58.466Z,84.67
2023-02-17T00:38:58.406Z,84.79
2023-02-17T00:39:58.570Z,85.01
2023-02-17T00:40:58.386Z,85.11
2023-02-17T00:41:58.435Z,85.24
2023-02-17T00:42:58.367Z,85.18
2023-02-17T00:43:58.478Z,85.28
2023-02-17T00:44:58.333Z,85.18
2023-02-17T00:45:58.538Z,85.27
2023-02-17T00:46:58.314Z,85.37
2023-02-17T00:47:58.346Z,85.41
2023-02-17T00:48:58.281Z,85.40
2023-02-17T00:49:58.379Z,85.21
2023-02-17T00:50:58.255Z,85.02
2023-02-17T00:51:58.366Z,84.81
2023-02-17T00:52:58.226Z,84.89
2023-02-17T00:54:00.449Z,85.02
2023-02-17T00:54:58.205Z,84.98
2023-02-17T00:55:58.426Z,84.87
2023-02-17T00:56:58.173Z,84.90
2023-02-17T00:57:58.277Z,85.05
2023-02-17T00:58:58.145Z,85.23
2023-02-17T00:59:59.295Z,85.11
2023-02-17T01:00:58.137Z,84.97
2023-02-17T01:01:58.286Z,84.97
2023-02-17T01:02:58.102Z,85.00
2023-02-17T01:03:58.292Z,85.01
2023-02-17T01:04:58.111Z,85.10
2023-02-17T01:05:59.091Z,85.31
2023-02-17T01:06:58.054Z,85.31
2023-02-17T01:07:58.093Z,85.41
2023-02-17T01:08:58.049Z,85.50
2023-02-17T01:09:58.184Z,85.28
2023-02-17T01:10:58.005Z,85.09
2023-02-17T01:11:59.204Z,85.07
2023-02-17T01:12:57.974Z,85.19
2023-02-17T01:13:58.113Z,85.26
2023-02-17T01:14:57.950Z,85.40
2023-02-17T01:15:58.025Z,85.63
2023-02-17T01:16:58.041Z,85.77
2023-02-17T01:17:57.972Z,85.83
2023-02-17T01:18:57.886Z,85.85
2023-02-17T01:19:58.015Z,85.52
2023-02-17T01:20:57.876Z,85.42
2023-02-17T01:21:58.010Z,85.45
2023-02-17T01:22:57.849Z,85.35
2023-02-17T01:23:57.881Z,85.35
2023-02-17T01:24:57.810Z,85.26
2023-02-17T01:25:57.924Z,85.21
2023-02-17T01:26:57.795Z,85.21
2023-02-17T01:27:57.910Z,85.21
2023-02-17T01:28:57.760Z,85.42
2023-02-17T01:29:57.899Z,85.60
2023-02-17T01:30:57.791Z,85.82
2023-02-17T01:31:57.991Z,85.99
2023-02-17T01:32:57.714Z,86.05
2023-02-17T01:33:57.814Z,86.11
2023-02-17T01:34:57.684Z,86.02
2023-02-17T01:35:57.797Z,85.93
2023-02-17T01:36:57.665Z,85.72
2023-02-17T01:37:59.827Z,85.49
2023-02-17T01:38:57.654Z,85.45
2023-02-17T01:39:57.824Z,85.35
2023-02-17T01:40:57.622Z,85.24
2023-02-17T01:41:58.730Z,85.24
2023-02-17T01:42:57.575Z,85.39
2023-02-17T01:43:58.654Z,85.23
2023-02-17T01:44:57.554Z,84.97
2023-02-17T01:45:58.649Z,85.07
2023-02-17T01:46:57.558Z,85.38
2023-02-17T01:47:57.603Z,85.50
2023-02-17T01:48:57.501Z,85.53
2023-02-17T01:49:57.646Z,85.61
2023-02-17T01:50:57.481Z,85.64
2023-02-17T01:52:00.790Z,85.69
2023-02-17T01:52:57.441Z,85.69
2023-02-17T01:53:57.523Z,85.75
2023-02-17T01:54:57.431Z,85.71
2023-02-17T01:55:57.546Z,85.65
2023-02-17T01:56:57.403Z,85.51
2023-02-17T01:57:58.560Z,85.51
2023-02-17T01:58:57.426Z,85.66
2023-02-17T01:59:57.535Z,85.71
2023-02-17T02:00:57.337Z,85.67
2023-02-17T02:01:58.578Z,85.78
2023-02-17T02:02:57.415Z,85.96
2023-02-17T02:03:57.448Z,86.15
2023-02-17T02:04:57.295Z,86.33
2023-02-17T02:06:18.419Z,86.17
2023-02-17T02:06:57.268Z,85.99
2023-02-17T02:07:57.375Z,85.84
2023-02-17T02:08:57.242Z,85.84
2023-02-17T02:09:57.453Z,85.94
2023-02-17T02:10:57.217Z,86.10
2023-02-17T02:11:57.325Z,86.20
2023-02-17T02:12:57.227Z,86.36
2023-02-17T02:13:57.402Z,86.40
2023-02-17T02:14:57.169Z,86.40
2023-02-17T02:15:57.347Z,86.37
2023-02-17T02:16:57.150Z,86.23
2023-02-17T02:17:57.268Z,86.05
2023-02-17T02:18:57.122Z,85.91
2023-02-17T02:19:57.178Z,85.85
2023-02-17T02:20:57.092Z,85.81
2023-02-17T02:22:00.436Z,85.78
2023-02-17T02:22:57.059Z,85.79
2023-02-17T02:23:57.150Z,85.84
2023-02-17T02:24:57.037Z,85.79
2023-02-17T02:25:57.178Z,85.55
2023-02-17T02:26:57.008Z,85.36
2023-02-17T02:27:59.219Z,85.23
2023-02-17T02:28:56.985Z,85.20
2023-02-17T02:29:57.076Z,85.28
2023-02-17T02:30:56.972Z,85.52
2023-02-17T02:31:57.123Z,85.54
2023-02-17T02:32:56.934Z,85.74
2023-02-17T02:34:00.251Z,85.76
2023-02-17T02:34:56.897Z,85.71
2023-02-17T02:35:57.062Z,85.70
2023-02-17T02:36:56.877Z,85.65
2023-02-17T02:37:56.996Z,85.61
2023-02-17T02:38:56.850Z,85.44
2023-02-17T02:39:56.988Z,85.55
2023-02-17T02:40:56.827Z,85.38
2023-02-17T02:41:56.981Z,85.37
2023-02-17T02:42:56.847Z,85.53
2023-02-17T02:43:56.903Z,85.50
2023-02-17T02:44:56.776Z,85.42
2023-02-17T02:45:57.017Z,85.49
2023-02-17T02:46:56.747Z,85.44
2023-02-17T02:47:56.874Z,85.63
2023-02-17T02:48:56.754Z,85.90
2023-02-17T02:49:57.825Z,85.96
2023-02-17T02:50:56.696Z,85.96
2023-02-17T02:51:56.794Z,85.69
2023-02-17T02:52:56.700Z,85.65
2023-02-17T02:53:56.792Z,85.58
2023-02-17T02:54:56.645Z,85.65
2023-02-17T02:55:56.816Z,85.58
2023-02-17T02:56:56.634Z,85.55
2023-02-17T02:57:57.721Z,85.81
2023-02-17T02:58:56.584Z,85.80
2023-02-17T02:59:56.674Z,85.86
2023-02-17T03:00:56.582Z,85.88
2023-02-17T03:01:56.713Z,85.96
2023-02-17T03:02:56.561Z,85.92
2023-02-17T03:03:56.735Z,85.94
2023-02-17T03:04:56.511Z,85.90
2023-02-17T03:05:56.594Z,86.00
2023-02-17T03:06:56.482Z,86.16
2023-02-17T03:07:56.632Z,86.23
2023-02-17T03:08:56.465Z,86.23
2023-02-17T03:09:56.625Z,86.13
2023-02-17T03:10:56.433Z,86.18
2023-02-17T03:11:56.613Z,86.21
2023-02-17T03:12:56.409Z,86.13
2023-02-17T03:13:56.532Z,86.11
2023-02-17T03:14:56.380Z,86.13
2023-02-17T03:15:56.510Z,86.00
2023-02-17T03:16:56.360Z,85.99
2023-02-17T03:17:56.497Z,86.07
2023-02-17T03:18:56.321Z,85.97
2023-02-17T03:19:57.449Z,86.00
2023-02-17T03:20:56.323Z,85.99
2023-02-17T03:21:56.410Z,85.96
2023-02-17T03:22:56.276Z,86.11
2023-02-17T03:23:56.403Z,86.16
2023-02-17T03:24:56.266Z,86.36
2023-02-17T03:26:17.309Z,86.67
2023-02-17T03:26:56.218Z,86.69
2023-02-17T03:27:56.319Z,86.56
2023-02-17T03:28:56.210Z,86.38
2023-02-17T03:29:56.336Z,86.32
2023-02-17T03:30:56.171Z,86.32
2023-02-17T03:31:57.468Z,86.07
2023-02-17T03:32:56.162Z,86.12
2023-02-17T03:33:56.217Z,86.01
2023-02-17T03:34:56.118Z,85.88
2023-02-17T03:35:56.236Z,85.88
2023-02-17T03:36:56.088Z,85.87
2023-02-17T03:37:57.172Z,86.00
2023-02-17T03:38:56.066Z,86.25
2023-02-17T03:39:56.235Z,86.19
2023-02-17T03:40:56.045Z,85.96
2023-02-17T03:41:56.217Z,85.91
2023-02-17T03:42:56.018Z,85.91
2023-02-17T03:43:56.046Z,85.78
2023-02-17T03:44:55.989Z,85.85
2023-02-17T03:45:56.158Z,85.85
2023-02-17T03:46:55.967Z,85.95
2023-02-17T03:47:56.123Z,85.76
2023-02-17T03:48:55.936Z,85.90
2023-02-17T03:49:56.053Z,86.01
2023-02-17T03:50:55.920Z,86.03
2023-02-17T03:51:56.043Z,86.07
2023-02-17T03:52:55.885Z,86.04
2023-02-17T03:53:56.025Z,86.08
2023-02-17T03:54:55.871Z,85.94
2023-02-17T03:55:55.961Z,85.71
2023-02-17T03:56:55.834Z,85.82
2023-02-17T03:57:55.950Z,85.94
2023-02-17T03:58:55.800Z,85.99
2023-02-17T03:59:56.952Z,85.87
2023-02-17T04:00:55.780Z,85.76
2023-02-17T04:01:55.872Z,85.82
2023-02-17T04:02:55.750Z,86.12
2023-02-17T04:03:55.885Z,86.13
2023-02-17T04:04:55.725Z,86.07
2023-02-17T04:05:57.930Z,86.08
2023-02-17T04:06:55.706Z,86.37
2023-02-17T04:07:55.868Z,86.40
2023-02-17T04:08:55.678Z,86.31
2023-02-17T04:09:55.857Z,86.29
2023-02-17T04:10:55.651Z,86.15
2023-02-17T04:12:16.725Z,86.24
2023-02-17T04:12:55.626Z,86.36
2023-02-17T04:13:55.712Z,86.38
2023-02-17T04:14:55.597Z,86.44
2023-02-17T04:15:55.805Z,86.43
2023-02-17T04:16:55.608Z,86.62
2023-02-17T04:17:56.679Z,86.79
2023-02-17T04:18:55.537Z,86.58
2023-02-17T04:19:56.605Z,86.52
2023-02-17T04:20:55.523Z,86.50
2023-02-17T04:21:58.844Z,86.50
2023-02-17T04:22:55.498Z,86.52
2023-02-17T04:23:55.544Z,86.66
2023-02-17T04:24:55.455Z,86.63
2023-02-17T04:25:55.586Z,86.41
2023-02-17T04:26:55.434Z,86.55
2023-02-17T04:27:55.572Z,86.67
2023-02-17T04:28:55.410Z,86.61
2023-02-17T04:29:55.496Z,86.57
2023-02-17T04:30:55.455Z,86.69
2023-02-17T04:31:55.642Z,86.75
2023-02-17T04:32:55.376Z,86.67
2023-02-17T04:33:56.498Z,86.72
2023-02-17T04:34:55.329Z,86.81
2023-02-17T04:36:16.442Z,86.97
2023-02-17T04:36:55.338Z,87.02
2023-02-17T04:37:55.502Z,86.97
2023-02-17T04:38:55.331Z,86.94
2023-02-17T04:39:58.564Z,86.78
2023-02-17T04:40:55.264Z,86.81
2023-02-17T04:41:55.370Z,86.64
2023-02-17T04:42:55.244Z,86.49
2023-02-17T04:43:55.300Z,86.71
2023-02-17T04:44:55.223Z,86.84
2023-02-17T04:45:55.420Z,86.81
2023-02-17T04:46:55.171Z,86.85
2023-02-17T04:47:55.268Z,86.88
2023-02-17T04:48:55.172Z,86.77
2023-02-17T04:49:55.212Z,86.80
2023-02-17T04:50:55.143Z,86.62
2023-02-17T04:51:56.268Z,86.44
2023-02-17T04:52:55.089Z,86.49
2023-02-17T04:53:55.179Z,86.66
2023-02-17T04:54:55.066Z,86.74
2023-02-17T04:56:16.240Z,86.66
2023-02-17T04:56:55.045Z,86.60
2023-02-17T04:57:55.417Z,86.62
2023-02-17T04:58:55.158Z,86.72
2023-02-17T04:59:55.094Z,86.79
2023-02-17T05:00:54.985Z,86.75
2023-02-17T05:01:56.088Z,86.74
2023-02-17T05:02:54.994Z,86.57
2023-02-17T05:03:55.056Z,86.54
2023-02-17T05:04:55.019Z,86.74
2023-02-17T05:05:54.989Z,86.91
2023-02-17T05:06:54.907Z,86.93
2023-02-17T05:07:54.977Z,86.88
2023-02-17T05:08:54.873Z,86.87
2023-02-17T05:09:54.956Z,86.82
2023-02-17T05:10:54.859Z,86.85
2023-02-17T05:11:54.996Z,86.86
2023-02-17T05:12:54.837Z,86.81
2023-02-17T05:13:54.984Z,86.74
2023-02-17T05:14:54.805Z,86.61
2023-02-17T05:15:54.892Z,86.53
2023-02-17T05:16:54.783Z,86.53
2023-02-17T05:17:54.764Z,86.52
2023-02-17T05:18:54.746Z,86.57
2023-02-17T05:19:55.912Z,86.55
2023-02-17T05:20:54.735Z,86.52
2023-02-17T05:21:56.867Z,86.58
2023-02-17T05:22:54.709Z,86.69
2023-02-17T05:23:54.803Z,86.78
2023-02-17T05:24:54.671Z,86.71
2023-02-17T05:25:54.797Z,86.56
2023-02-17T05:26:54.643Z,86.44
2023-02-17T05:27:55.713Z,86.45
2023-02-17T05:28:54.614Z,86.35
2023-02-17T05:29:54.735Z,86.23
2023-02-17T05:30:54.611Z,86.29
2023-02-17T05:31:54.815Z,86.37
2023-02-17T05:32:54.609Z,86.28
2023-02-17T05:33:54.587Z,86.16
2023-02-17T05:34:54.532Z,86.01
2023-02-17T05:35:54.621Z,85.92
2023-02-17T05:36:54.520Z,85.94
2023-02-17T05:37:57.883Z,85.78
2023-02-17T05:38:54.492Z,85.61
2023-02-17T05:39:54.595Z,85.53
2023-02-17T05:40:54.452Z,85.54
2023-02-17T05:41:56.638Z,85.52
2023-02-17T05:42:54.432Z,85.36
2023-02-17T05:43:57.696Z,85.39
2023-02-17T05:44:54.413Z,85.28
2023-02-17T05:45:54.491Z,85.33
2023-02-17T05:46:54.404Z,85.60
2023-02-17T05:47:54.532Z,85.73
2023-02-17T05:48:54.353Z,85.78
2023-02-17T05:49:57.691Z,85.86
2023-02-17T05:50:54.322Z,85.81
2023-02-17T05:51:54.502Z,85.94
2023-02-17T05:52:54.303Z,86.01
2023-02-17T05:53:54.341Z,85.89
2023-02-17T05:54:54.297Z,85.87
2023-02-17T05:56:15.355Z,85.84
2023-02-17T05:56:54.276Z,85.90
2023-02-17T05:57:54.410Z,85.91
2023-02-17T05:58:54.233Z,85.82
2023-02-17T05:59:54.359Z,85.85
2023-02-17T06:00:54.212Z,85.99
2023-02-17T06:01:56.270Z,86.01
2023-02-17T06:02:54.192Z,85.97
2023-02-17T06:03:54.221Z,85.93
2023-02-17T06:04:54.343Z,85.98
2023-02-17T06:05:54.275Z,86.12
2023-02-17T06:06:54.155Z,86.38
2023-02-17T06:07:55.204Z,86.53
2023-02-17T06:08:54.129Z,86.66
2023-02-17T06:09:54.228Z,86.78
2023-02-17T06:10:54.055Z,86.80
2023-02-17T06:11:54.152Z,86.81
2023-02-17T06:12:54.062Z,86.82
2023-02-17T06:13:54.092Z,86.74
2023-02-17T06:14:54.011Z,86.64
2023-02-17T06:16:15.148Z,86.68
2023-02-17T06:16:53.989Z,86.69
2023-02-17T06:17:54.163Z,86.63
2023-02-17T06:18:53.978Z,86.74
2023-02-17T06:19:54.011Z,86.86
2023-02-17T06:20:53.941Z,86.86
2023-02-17T06:21:54.033Z,86.79
2023-02-17T06:22:53.902Z,86.75
2023-02-17T06:23:53.973Z,86.81
2023-02-17T06:24:53.911Z,86.79
2023-02-17T06:25:54.008Z,86.82
2023-02-17T06:26:53.860Z,86.78
2023-02-17T06:27:54.067Z,86.87
2023-02-17T06:28:53.831Z,86.84
2023-02-17T06:29:53.867Z,86.83
2023-02-17T06:30:53.839Z,86.78
2023-02-17T06:31:53.962Z,86.79
2023-02-17T06:32:53.783Z,86.65
2023-02-17T06:33:53.845Z,86.68
2023-02-17T06:34:53.758Z,86.53
2023-02-17T06:35:53.883Z,86.43
2023-02-17T06:36:53.765Z,86.46
2023-02-17T06:37:54.926Z,86.35
2023-02-17T06:38:53.697Z,86.40
2023-02-17T06:39:53.750Z,86.46
2023-02-17T06:40:53.664Z,86.46
2023-02-17T06:41:53.796Z,86.49
2023-02-17T06:42:53.665Z,86.61
2023-02-17T06:43:53.722Z,86.48
2023-02-17T06:44:53.621Z,86.41
2023-02-17T06:45:53.789Z,86.46
2023-02-17T06:46:53.586Z,86.49
2023-02-17T06:47:53.688Z,86.48
2023-02-17T06:48:53.584Z,86.58
2023-02-17T06:49:53.622Z,86.59
2023-02-17T06:50:53.544Z,86.64
2023-02-17T06:51:53.666Z,86.67
2023-02-17T06:52:53.503Z,86.56
2023-02-17T06:53:53.591Z,86.50
2023-02-17T06:54:53.499Z,86.35
2023-02-17T06:56:14.631Z,86.33
2023-02-17T06:56:53.460Z,86.16
2023-02-17T06:57:53.560Z,86.33
2023-02-17T06:58:53.442Z,86.58
2023-02-17T06:59:53.502Z,86.69
2023-02-17T07:00:53.434Z,86.79
2023-02-17T07:01:54.647Z,86.81
2023-02-17T07:02:53.454Z,86.71
2023-02-17T07:03:53.473Z,86.80
2023-02-17T07:04:53.358Z,86.83
2023-02-17T07:05:53.409Z,86.72
2023-02-17T07:06:53.344Z,86.53
2023-02-17T07:07:54.369Z,86.37
2023-02-17T07:08:53.310Z,86.23
2023-02-17T07:09:53.381Z,86.32
2023-02-17T07:10:53.278Z,86.43
2023-02-17T07:11:53.414Z,86.62
2023-02-17T07:12:53.279Z,86.58
2023-02-17T07:13:53.361Z,86.58
2023-02-17T07:14:53.223Z,86.61
2023-02-17T07:15:53.300Z,86.74
2023-02-17T07:16:53.194Z,86.68
2023-02-17T07:17:53.322Z,86.64
2023-02-17T07:18:53.189Z,86.56
2023-02-17T07:21:02.543Z,86.18
2023-02-17T07:22:02.446Z,86.19
2023-02-17T07:23:02.471Z,86.29
2023-02-17T07:24:02.726Z,86.28
2023-02-17T07:25:04.623Z,86.22
2023-02-17T07:26:02.403Z,86.28
2023-02-17T07:27:02.538Z,86.24
2023-02-17T07:28:02.364Z,86.21
2023-02-17T07:29:02.503Z,86.16
2023-02-17T07:30:02.375Z,86.17
2023-02-17T07:31:02.463Z,86.16
2023-02-17T07:32:02.557Z,86.23
2023-02-17T07:33:02.358Z,86.25
2023-02-17T07:34:02.274Z,86.20
2023-02-17T07:35:02.383Z,86.08
2023-02-17T07:36:02.264Z,85.99
2023-02-17T07:37:02.420Z,85.94
2023-02-17T07:38:02.216Z,86.00
2023-02-17T07:39:02.243Z,86.02
2023-02-17T07:40:02.196Z,86.01
2023-02-17T07:41:02.295Z,86.01
2023-02-17T07:42:02.177Z,85.96
2023-02-17T07:43:02.220Z,85.88
2023-02-17T07:44:02.144Z,85.97
2023-02-17T07:45:02.258Z,86.01
2023-02-17T07:46:02.145Z,85.94
2023-02-17T07:47:02.308Z,85.75
2023-02-17T07:48:02.110Z,85.79
2023-02-17T07:49:02.137Z,85.88
2023-02-17T07:50:02.055Z,85.99
2023-02-17T07:51:02.168Z,86.19
2023-02-17T07:52:04.866Z,86.23
2023-02-17T07:53:02.101Z,86.28
2023-02-17T07:54:02.056Z,86.48
2023-02-17T07:55:03.171Z,86.79
2023-02-17T07:56:01.980Z,87.29
2023-02-17T07:57:02.229Z,87.33
2023-02-17T07:58:01.951Z,87.06
2023-02-17T07:59:02.229Z,87.04
2023-02-17T08:00:01.945Z,87.25
2023-02-17T08:01:03.065Z,87.31
2023-02-17T08:02:01.921Z,87.13
2023-02-17T08:03:03.017Z,86.92
2023-02-17T08:04:01.866Z,86.53
2023-02-17T08:05:02.016Z,86.36
2023-02-17T08:06:01.889Z,86.45
2023-02-17T08:07:01.966Z,86.10
2023-02-17T08:08:01.817Z,85.79
2023-02-17T08:09:02.002Z,86.01
2023-02-17T08:10:01.795Z,86.04
2023-02-17T08:11:01.942Z,86.18
2023-02-17T08:12:01.781Z,85.94
2023-02-17T08:13:01.858Z,85.73
2023-02-17T08:14:01.737Z,85.43
2023-02-17T08:15:01.885Z,85.24
2023-02-17T08:16:01.703Z,85.05
2023-02-17T08:17:01.923Z,85.00
2023-02-17T08:18:01.714Z,85.45
2023-02-17T08:19:01.753Z,85.50
2023-02-17T08:20:07.936Z,85.48
2023-02-17T08:21:02.650Z,85.62
2023-02-17T08:22:01.766Z,85.60
2023-02-17T08:23:01.641Z,85.31
2023-02-17T08:24:01.754Z,85.22
2023-02-17T08:25:01.592Z,85.06
2023-02-17T08:26:04.013Z,85.10
2023-02-17T08:27:01.568Z,84.86
2023-02-17T08:28:01.843Z,84.77
2023-02-17T08:29:01.553Z,85.11
2023-02-17T08:30:02.741Z,85.40
2023-02-17T08:31:01.611Z,85.51
2023-02-17T08:32:01.804Z,85.18
2023-02-17T08:33:01.486Z,85.09
2023-02-17T08:34:01.570Z,85.13
2023-02-17T08:35:01.483Z,84.89
2023-02-17T08:36:01.654Z,84.54
2023-02-17T08:37:01.437Z,83.96
2023-02-17T08:38:01.532Z,83.95
2023-02-17T08:39:01.407Z,84.16
2023-02-17T08:40:01.493Z,84.19
2023-02-17T08:41:01.393Z,84.35
2023-02-17T08:42:02.518Z,84.40
2023-02-17T08:43:03.494Z,84.07
2023-02-17T08:44:01.560Z,83.76
2023-02-17T08:45:01.336Z,82.77
2023-02-17T08:46:01.697Z,82.49
2023-02-17T08:47:01.372Z,82.08
2023-02-17T08:48:01.399Z,81.97
2023-02-17T08:49:01.290Z,82.95
2023-02-17T08:50:01.365Z,83.35
2023-02-17T08:51:01.251Z,83.06
2023-02-17T08:52:01.430Z,82.95
2023-02-17T08:53:01.252Z,82.83
2023-02-17T08:54:05.591Z,82.89
2023-02-17T08:55:01.204Z,82.77
2023-02-17T08:56:03.417Z,82.71
2023-02-17T08:57:01.170Z,82.67
2023-02-17T08:58:01.328Z,82.34
2023-02-17T08:59:01.619Z,82.04
2023-02-17T09:00:05.484Z,82.33
2023-02-17T09:01:01.124Z,82.64
2023-02-17T09:02:01.282Z,82.72
2023-02-17T09:03:01.082Z,83.13
2023-02-17T09:04:01.268Z,83.46
2023-02-17T09:05:01.108Z,83.14
2023-02-17T09:06:01.354Z,82.97
2023-02-17T09:07:01.049Z,82.80
2023-02-17T09:08:01.099Z,82.80
2023-02-17T09:09:01.010Z,82.98
2023-02-17T09:10:01.121Z,83.73
2023-02-17T09:11:01.019Z,83.32
2023-02-17T09:12:01.109Z,83.70
2023-02-17T09:13:00.966Z,84.22
2023-02-17T09:14:01.090Z,84.32
2023-02-17T09:15:00.918Z,83.99
2023-02-17T09:16:01.084Z,83.76
2023-02-17T09:17:00.941Z,84.31
2023-02-17T09:18:04.198Z,85.03
2023-02-17T09:19:00.878Z,84.85
2023-02-17T09:20:00.990Z,84.92
2023-02-17T09:21:00.877Z,84.62
2023-02-17T09:22:01.030Z,84.33
2023-02-17T09:23:00.859Z,84.25
2023-02-17T09:24:01.043Z,84.00
2023-02-17T09:25:00.829Z,84.12
2023-02-17T09:26:00.901Z,83.81
2023-02-17T09:27:00.831Z,83.90
2023-02-17T09:28:00.840Z,82.99
2023-02-17T09:29:00.752Z,82.17
2023-02-17T09:30:01.892Z,81.64
2023-02-17T09:31:00.738Z,81.71
2023-02-17T09:32:01.075Z,82.50
2023-02-17T09:33:00.698Z,83.08
2023-02-17T09:34:00.853Z,83.97
2023-02-17T09:35:00.671Z,83.71
2023-02-17T09:36:00.731Z,83.38
2023-02-17T09:37:00.719Z,83.04
2023-02-17T09:38:00.727Z,83.08
2023-02-17T09:39:00.625Z,83.06
2023-02-17T09:40:21.719Z,83.18
2023-02-17T09:41:00.589Z,83.25
2023-02-17T09:42:00.743Z,83.00
2023-02-17T09:43:00.564Z,83.64
2023-02-17T09:44:00.669Z,85.18
2023-02-17T09:45:00.547Z,86.19
2023-02-17T09:46:00.702Z,85.98
2023-02-17T09:47:02.488Z,85.77
2023-02-17T09:48:03.804Z,85.38
2023-02-17T09:49:00.576Z,85.84
2023-02-17T09:50:00.623Z,86.58
2023-02-17T09:51:00.498Z,86.95
2023-02-17T09:52:00.622Z,86.96
2023-02-17T09:53:00.420Z,86.92
2023-02-17T09:54:00.686Z,86.75
2023-02-17T09:55:00.389Z,86.54
2023-02-17T09:56:00.531Z,86.71
2023-02-17T09:57:00.390Z,87.10
2023-02-17T09:58:00.519Z,87.19
2023-02-17T09:59:00.340Z,87.47
2023-02-17T10:00:00.550Z,87.64
2023-02-17T10:01:00.421Z,87.64
2023-02-17T10:02:00.318Z,87.88
2023-02-17T10:03:00.433Z,88.15
2023-02-17T10:04:00.441Z,88.09
2023-02-17T10:05:00.338Z,87.78
2023-02-17T10:06:00.415Z,87.69
2023-02-17T10:07:00.237Z,87.64
2023-02-17T10:08:00.372Z,87.58
2023-02-17T10:09:00.214Z,87.42
2023-02-17T10:10:00.381Z,87.01
2023-02-17T10:11:00.186Z,86.91
2023-02-17T10:12:01.337Z,86.89
2023-02-17T10:13:00.156Z,86.74
2023-02-17T10:14:00.253Z,86.80
2023-02-17T10:15:00.135Z,87.03
2023-02-17T10:16:00.350Z,86.99
2023-02-17T10:17:00.176Z,85.59
2023-02-17T10:18:01.291Z,85.06
2023-02-17T10:19:00.115Z,84.98
2023-02-17T10:20:00.192Z,85.32
2023-02-17T10:21:00.113Z,85.83
2023-02-17T10:22:01.114Z,86.35
2023-02-17T10:23:00.020Z,86.72
2023-02-17T10:24:02.192Z,86.71
2023-02-17T10:25:00.004Z,86.72
2023-02-17T10:26:22.173Z,86.94
2023-02-17T10:27:00.026Z,87.03
2023-02-17T10:28:00.141Z,87.19
2023-02-17T10:28:59.935Z,87.53
2023-02-17T10:30:00.111Z,87.76
2023-02-17T10:30:59.977Z,87.91
2023-02-17T10:32:00.217Z,88.06
2023-02-17T10:32:59.885Z,88.26
2023-02-17T10:34:01.063Z,88.32
2023-02-17T10:34:59.886Z,88.45
2023-02-17T10:35:59.992Z,88.63
2023-02-17T10:36:59.850Z,88.78
2023-02-17T10:38:00.041Z,88.70
2023-02-17T10:38:59.808Z,88.65
2023-02-17T10:40:01.893Z,88.63
2023-02-17T10:41:03.824Z,88.77
2023-02-17T10:41:59.803Z,88.97
2023-02-17T10:43:00.095Z,89.18
2023-02-17T10:43:59.743Z,89.40
2023-02-17T10:45:00.879Z,89.46
2023-02-17T10:45:59.715Z,89.36
2023-02-17T10:46:59.806Z,89.32
2023-02-17T10:47:59.764Z,89.45
2023-02-17T10:48:59.808Z,89.58
2023-02-17T10:49:59.664Z,89.61
2023-02-17T10:50:59.967Z,89.53
2023-02-17T10:51:59.729Z,89.54
2023-02-17T10:52:59.717Z,89.43
2023-02-17T10:53:59.666Z,89.42
2023-02-17T10:54:59.715Z,89.45
2023-02-17T10:55:59.582Z,89.51
2023-02-17T10:57:20.740Z,89.43
2023-02-17T10:57:59.570Z,89.23
2023-02-17T10:58:59.680Z,89.03
2023-02-17T10:59:59.570Z,89.13
2023-02-17T11:00:59.777Z,89.34
2023-02-17T11:01:59.517Z,89.37
2023-02-17T11:02:59.558Z,89.40
2023-02-17T11:03:59.520Z,89.43
2023-02-17T11:04:59.591Z,89.49
2023-02-17T11:05:59.502Z,89.60
2023-02-17T11:06:59.539Z,89.69
2023-02-17T11:07:59.430Z,89.69
2023-02-17T11:08:59.565Z,89.72
2023-02-17T11:09:59.393Z,89.66
2023-02-17T11:10:59.494Z,89.59
2023-02-17T11:11:59.376Z,89.66
2023-02-17T11:13:00.463Z,89.68
2023-02-17T11:14:00.307Z,89.66
2023-02-17T11:14:59.571Z,89.53
2023-02-17T11:15:59.368Z,89.51
2023-02-17T11:17:00.435Z,89.55
2023-02-17T11:17:59.303Z,89.54
2023-02-17T11:18:59.443Z,89.54
2023-02-17T11:19:59.272Z,89.61
2023-02-17T11:20:59.381Z,89.63
2023-02-17T11:21:59.256Z,89.60
2023-02-17T11:22:59.343Z,89.44
2023-02-17T11:23:59.290Z,89.28
2023-02-17T11:25:00.416Z,89.51
2023-02-17T11:25:59.201Z,89.54
2023-02-17T11:26:59.280Z,89.44
2023-02-17T11:27:59.193Z,89.17
2023-02-17T11:28:59.353Z,88.88
2023-02-17T11:29:59.181Z,88.59
2023-02-17T11:30:59.266Z,88.52
2023-02-17T11:31:59.274Z,88.70
2023-02-17T11:33:00.213Z,88.89
2023-02-17T11:33:59.087Z,88.89
2023-02-17T11:34:59.224Z,89.00
2023-02-17T11:35:59.073Z,89.04
2023-02-17T11:36:59.166Z,89.15
2023-02-17T11:37:59.026Z,89.30
2023-02-17T11:38:59.084Z,89.16
2023-02-17T11:39:59.003Z,89.00
2023-02-17T11:40:59.026Z,88.82
2023-02-17T11:41:59.000Z,88.64
2023-02-17T11:43:01.168Z,88.61
2023-02-17T11:43:58.946Z,88.72
2023-02-17T11:44:59.101Z,88.70
2023-02-17T11:46:00.826Z,88.80
2023-02-17T11:46:59.036Z,88.78
2023-02-17T11:47:58.917Z,88.46
2023-02-17T11:49:19.956Z,87.19
2023-02-17T11:49:58.869Z,86.43
2023-02-17T11:50:58.864Z,86.88
2023-02-17T11:51:58.985Z,87.44
2023-02-17T11:52:58.826Z,86.18
2023-02-17T11:53:58.955Z,84.11
2023-02-17T11:54:58.831Z,81.44
2023-02-17T11:55:58.945Z,79.24
2023-02-17T11:56:58.798Z,77.88
2023-02-17T11:57:58.882Z,76.71
2023-02-17T11:58:58.750Z,76.78
2023-02-17T12:00:00.951Z,77.62
2023-02-17T12:00:58.712Z,76.25
2023-02-17T12:01:58.748Z,75.83
2023-02-17T12:02:58.699Z,74.33
2023-02-17T12:03:58.779Z,72.11
2023-02-17T12:04:58.663Z,71.29
2023-02-17T12:06:02.053Z,71.34
2023-02-17T12:06:59.230Z,72.58
2023-02-17T12:07:58.749Z,71.46
2023-02-17T12:08:58.642Z,69.98
2023-02-17T12:09:58.627Z,70.51
2023-02-17T12:10:58.772Z,70.10
2023-02-17T12:11:58.609Z,70.12
2023-02-17T12:12:58.718Z,69.94
2023-02-17T12:13:58.662Z,69.91
2023-02-17T12:14:58.754Z,69.44
2023-02-17T12:15:58.519Z,70.44
2023-02-17T12:16:58.581Z,69.28
2023-02-17T12:17:58.529Z,69.51
2023-02-17T12:18:58.590Z,68.79
2023-02-17T12:19:58.469Z,69.39
2023-02-17T12:20:58.528Z,70.24
2023-02-17T12:21:58.440Z,70.53
2023-02-17T12:22:59.590Z,68.97
2023-02-17T12:23:58.441Z,68.18
2023-02-17T12:24:58.501Z,68.60
2023-02-17T12:25:58.378Z,74.96
2023-02-17T12:26:58.445Z,73.25
2023-02-17T12:27:58.369Z,73.37
2023-02-17T12:28:58.468Z,72.19
2023-02-17T12:29:58.395Z,71.68
2023-02-17T12:30:58.665Z,71.64
2023-02-17T12:31:58.416Z,72.16
2023-02-17T12:32:58.454Z,70.97
2023-02-17T12:33:58.279Z,73.97
2023-02-17T12:34:58.471Z,70.42
2023-02-17T12:35:58.260Z,70.40
2023-02-17T12:36:58.321Z,69.70
2023-02-17T12:37:58.223Z,68.85
2023-02-17T12:38:58.356Z,71.71
2023-02-17T12:39:58.190Z,72.98
2023-02-17T12:40:59.313Z,70.35
2023-02-17T12:41:58.190Z,70.26
2023-02-17T12:43:00.419Z,68.52
2023-02-17T12:43:58.177Z,67.97
2023-02-17T12:44:58.268Z,68.33
2023-02-17T12:45:58.220Z,67.80
2023-02-17T12:46:59.210Z,67.38
2023-02-17T12:47:58.100Z,66.74
2023-02-17T12:48:59.261Z,66.55
2023-02-17T12:49:58.061Z,67.06
2023-02-17T12:50:58.159Z,66.35
2023-02-17T12:51:58.029Z,65.95
2023-02-17T12:52:59.116Z,66.89
2023-02-17T12:53:58.025Z,66.59